sensor_id;sensor_type;location;lat;lon;timestamp;P1;durP1;ratioP1;P2;durP2;ratioP2
41966;SDS011;27656;53.068;8.818;2022-11-20T00:00:19;19.23;;;12.50;;
41966;SDS011;27656;53.068;8.818;2022-11-20T00:02:46;22.77;;;12.70;;
41966;SDS011;27656;53.068;8.818;2022-11-20T00:05:12;23.40;;;13.43;;
41966;SDS011;27656;53.068;8.818;2022-11-20T00:07:39;23.43;;;13.53;;
41966;SDS011;27656;53.068;8.818;2022-11-20T00:10:05;19.27;;;12.30;;
41966;SDS011;27656;53.068;8.818;2022-11-20T00:12:32;21.63;;;12.47;;
41966;SDS011;27656;53.068;8.818;2022-11-20T00:15:00;20.93;;;12.60;;
41966;SDS011;27656;53.068;8.818;2022-11-20T00:17:27;17.87;;;11.83;;
41966;SDS011;27656;53.068;8.818;2022-11-20T00:19:55;22.03;;;12.63;;
41966;SDS011;27656;53.068;8.818;2022-11-20T00:22:21;20.53;;;12.33;;
41966;SDS011;27656;53.068;8.818;2022-11-20T00:24:48;20.93;;;12.13;;
41966;SDS011;27656;53.068;8.818;2022-11-20T00:27:14;21.47;;;12.40;;
41966;SDS011;27656;53.068;8.818;2022-11-20T00:29:41;22.40;;;12.63;;
41966;SDS011;27656;53.068;8.818;2022-11-20T00:32:07;24.03;;;12.33;;
41966;SDS011;27656;53.068;8.818;2022-11-20T00:34:34;21.73;;;12.37;;
41966;SDS011;27656;53.068;8.818;2022-11-20T00:37:00;24.03;;;13.13;;
41966;SDS011;27656;53.068;8.818;2022-11-20T00:39:27;20.83;;;11.83;;
41966;SDS011;27656;53.068;8.818;2022-11-20T00:41:54;19.90;;;11.90;;
41966;SDS011;27656;53.068;8.818;2022-11-20T00:44:21;21.27;;;12.53;;
41966;SDS011;27656;53.068;8.818;2022-11-20T00:46:48;24.57;;;12.27;;
41966;SDS011;27656;53.068;8.818;2022-11-20T00:49:14;20.57;;;12.20;;
41966;SDS011;27656;53.068;8.818;2022-11-20T00:51:40;24.07;;;12.70;;
41966;SDS011;27656;53.068;8.818;2022-11-20T00:54:07;21.40;;;11.67;;
41966;SDS011;27656;53.068;8.818;2022-11-20T00:56:34;24.83;;;12.97;;
41966;SDS011;27656;53.068;8.818;2022-11-20T00:59:00;20.97;;;12.73;;
41966;SDS011;27656;53.068;8.818;2022-11-20T01:01:27;22.40;;;13.83;;
41966;SDS011;27656;53.068;8.818;2022-11-20T01:03:56;20.10;;;12.57;;
41966;SDS011;27656;53.068;8.818;2022-11-20T01:06:28;21.73;;;12.57;;
41966;SDS011;27656;53.068;8.818;2022-11-20T01:08:58;20.37;;;12.47;;
41966;SDS011;27656;53.068;8.818;2022-11-20T01:11:26;22.70;;;12.80;;
41966;SDS011;27656;53.068;8.818;2022-11-20T01:13:54;22.80;;;12.83;;
41966;SDS011;27656;53.068;8.818;2022-11-20T01:16:22;21.57;;;12.97;;
41966;SDS011;27656;53.068;8.818;2022-11-20T01:18:55;28.63;;;13.67;;
41966;SDS011;27656;53.068;8.818;2022-11-20T01:21:24;23.27;;;13.50;;
41966;SDS011;27656;53.068;8.818;2022-11-20T01:23:52;23.10;;;13.60;;
41966;SDS011;27656;53.068;8.818;2022-11-20T01:26:20;23.60;;;13.80;;
41966;SDS011;27656;53.068;8.818;2022-11-20T01:28:49;22.03;;;12.97;;
41966;SDS011;27656;53.068;8.818;2022-11-20T01:31:19;23.30;;;12.97;;
41966;SDS011;27656;53.068;8.818;2022-11-20T01:34:13;26.63;;;13.77;;
41966;SDS011;27656;53.068;8.818;2022-11-20T01:36:41;21.93;;;12.83;;
41966;SDS011;27656;53.068;8.818;2022-11-20T01:39:12;23.97;;;13.43;;
41966;SDS011;27656;53.068;8.818;2022-11-20T01:41:43;21.53;;;12.40;;
41966;SDS011;27656;53.068;8.818;2022-11-20T01:50:17;25.43;;;13.67;;
41966;SDS011;27656;53.068;8.818;2022-11-20T01:52:56;25.40;;;13.47;;
41966;SDS011;27656;53.068;8.818;2022-11-20T01:55:28;22.33;;;12.40;;
41966;SDS011;27656;53.068;8.818;2022-11-20T01:57:57;22.53;;;12.63;;
41966;SDS011;27656;53.068;8.818;2022-11-20T02:00:24;22.73;;;13.03;;
41966;SDS011;27656;53.068;8.818;2022-11-20T02:02:57;21.27;;;13.03;;
41966;SDS011;27656;53.068;8.818;2022-11-20T02:05:30;23.37;;;12.43;;
41966;SDS011;27656;53.068;8.818;2022-11-20T02:08:00;24.00;;;13.47;;
41966;SDS011;27656;53.068;8.818;2022-11-20T02:10:29;24.87;;;13.60;;
41966;SDS011;27656;53.068;8.818;2022-11-20T02:12:56;21.80;;;12.73;;
41966;SDS011;27656;53.068;8.818;2022-11-20T02:15:41;20.70;;;12.60;;
41966;SDS011;27656;53.068;8.818;2022-11-20T02:18:09;21.73;;;13.13;;
41966;SDS011;27656;53.068;8.818;2022-11-20T02:20:36;23.10;;;13.83;;
41966;SDS011;27656;53.068;8.818;2022-11-20T02:23:12;21.20;;;12.57;;
41966;SDS011;27656;53.068;8.818;2022-11-20T02:26:03;22.17;;;12.53;;
41966;SDS011;27656;53.068;8.818;2022-11-20T02:28:32;21.40;;;12.77;;
41966;SDS011;27656;53.068;8.818;2022-11-20T02:30:59;21.70;;;12.43;;
41966;SDS011;27656;53.068;8.818;2022-11-20T02:33:25;22.47;;;12.67;;
41966;SDS011;27656;53.068;8.818;2022-11-20T02:35:52;24.00;;;13.10;;
41966;SDS011;27656;53.068;8.818;2022-11-20T02:38:18;27.57;;;13.87;;
41966;SDS011;27656;53.068;8.818;2022-11-20T02:40:45;21.47;;;13.33;;
41966;SDS011;27656;53.068;8.818;2022-11-20T02:43:19;28.07;;;14.67;;
41966;SDS011;27656;53.068;8.818;2022-11-20T02:45:45;30.80;;;16.13;;
41966;SDS011;27656;53.068;8.818;2022-11-20T02:48:12;34.50;;;16.90;;
41966;SDS011;27656;53.068;8.818;2022-11-20T02:50:39;31.57;;;17.07;;
41966;SDS011;27656;53.068;8.818;2022-11-20T02:53:06;31.43;;;16.23;;
41966;SDS011;27656;53.068;8.818;2022-11-20T02:55:32;33.83;;;16.77;;
41966;SDS011;27656;53.068;8.818;2022-11-20T02:57:59;32.70;;;16.50;;
41966;SDS011;27656;53.068;8.818;2022-11-20T03:00:26;31.67;;;16.60;;
41966;SDS011;27656;53.068;8.818;2022-11-20T03:02:52;35.13;;;16.90;;
41966;SDS011;27656;53.068;8.818;2022-11-20T03:05:19;28.37;;;15.87;;
41966;SDS011;27656;53.068;8.818;2022-11-20T03:07:45;29.87;;;15.57;;
41966;SDS011;27656;53.068;8.818;2022-11-20T03:10:12;33.60;;;15.93;;
41966;SDS011;27656;53.068;8.818;2022-11-20T03:12:38;29.23;;;15.57;;
41966;SDS011;27656;53.068;8.818;2022-11-20T03:15:05;27.80;;;15.67;;
41966;SDS011;27656;53.068;8.818;2022-11-20T03:17:33;29.80;;;14.67;;
41966;SDS011;27656;53.068;8.818;2022-11-20T03:19:59;32.80;;;15.53;;
41966;SDS011;27656;53.068;8.818;2022-11-20T03:22:28;30.33;;;15.50;;
41966;SDS011;27656;53.068;8.818;2022-11-20T03:24:55;28.90;;;15.47;;
41966;SDS011;27656;53.068;8.818;2022-11-20T03:27:22;30.27;;;14.90;;
41966;SDS011;27656;53.068;8.818;2022-11-20T03:29:48;29.83;;;14.60;;
41966;SDS011;27656;53.068;8.818;2022-11-20T03:32:15;27.10;;;13.33;;
41966;SDS011;27656;53.068;8.818;2022-11-20T03:34:41;25.80;;;13.53;;
41966;SDS011;27656;53.068;8.818;2022-11-20T03:37:08;27.77;;;13.90;;
41966;SDS011;27656;53.068;8.818;2022-11-20T03:39:34;27.47;;;13.50;;
41966;SDS011;27656;53.068;8.818;2022-11-20T03:42:00;26.10;;;12.03;;
41966;SDS011;27656;53.068;8.818;2022-11-20T03:44:27;24.93;;;12.87;;
41966;SDS011;27656;53.068;8.818;2022-11-20T03:46:53;25.47;;;12.90;;
41966;SDS011;27656;53.068;8.818;2022-11-20T03:49:20;22.20;;;12.70;;
41966;SDS011;27656;53.068;8.818;2022-11-20T03:51:47;23.23;;;11.70;;
41966;SDS011;27656;53.068;8.818;2022-11-20T03:54:14;20.30;;;11.13;;
41966;SDS011;27656;53.068;8.818;2022-11-20T03:56:40;18.63;;;10.87;;
41966;SDS011;27656;53.068;8.818;2022-11-20T03:59:09;18.00;;;10.17;;
41966;SDS011;27656;53.068;8.818;2022-11-20T04:01:36;22.53;;;10.93;;
41966;SDS011;27656;53.068;8.818;2022-11-20T04:04:03;18.13;;;10.23;;
41966;SDS011;27656;53.068;8.818;2022-11-20T04:06:33;23.93;;;12.30;;
41966;SDS011;27656;53.068;8.818;2022-11-20T04:09:00;22.27;;;11.70;;
41966;SDS011;27656;53.068;8.818;2022-11-20T04:11:28;21.97;;;11.43;;
41966;SDS011;27656;53.068;8.818;2022-11-20T04:13:59;18.00;;;11.47;;
41966;SDS011;27656;53.068;8.818;2022-11-20T04:16:29;19.33;;;10.80;;
41966;SDS011;27656;53.068;8.818;2022-11-20T04:18:57;17.30;;;10.33;;
41966;SDS011;27656;53.068;8.818;2022-11-20T04:21:25;21.50;;;11.00;;
41966;SDS011;27656;53.068;8.818;2022-11-20T04:23:52;17.67;;;9.80;;
41966;SDS011;27656;53.068;8.818;2022-11-20T04:26:20;19.23;;;10.27;;
41966;SDS011;27656;53.068;8.818;2022-11-20T04:28:47;17.93;;;10.43;;
41966;SDS011;27656;53.068;8.818;2022-11-20T04:31:15;19.93;;;11.13;;
41966;SDS011;27656;53.068;8.818;2022-11-20T04:33:43;21.90;;;9.97;;
41966;SDS011;27656;53.068;8.818;2022-11-20T04:36:12;20.30;;;11.17;;
41966;SDS011;27656;53.068;8.818;2022-11-20T04:38:40;18.20;;;9.93;;
41966;SDS011;27656;53.068;8.818;2022-11-20T04:41:15;19.87;;;10.97;;
41966;SDS011;27656;53.068;8.818;2022-11-20T04:43:46;19.80;;;10.53;;
41966;SDS011;27656;53.068;8.818;2022-11-20T04:46:15;22.27;;;10.47;;
41966;SDS011;27656;53.068;8.818;2022-11-20T04:48:42;19.23;;;9.67;;
41966;SDS011;27656;53.068;8.818;2022-11-20T04:51:08;16.53;;;9.10;;
41966;SDS011;27656;53.068;8.818;2022-11-20T04:53:35;16.63;;;8.90;;
41966;SDS011;27656;53.068;8.818;2022-11-20T04:56:05;19.90;;;9.50;;
41966;SDS011;27656;53.068;8.818;2022-11-20T04:58:33;17.37;;;9.67;;
41966;SDS011;27656;53.068;8.818;2022-11-20T05:01:05;15.43;;;8.33;;
41966;SDS011;27656;53.068;8.818;2022-11-20T05:03:39;15.40;;;8.27;;
41966;SDS011;27656;53.068;8.818;2022-11-20T05:06:08;15.80;;;8.67;;
41966;SDS011;27656;53.068;8.818;2022-11-20T05:08:36;15.97;;;8.47;;
41966;SDS011;27656;53.068;8.818;2022-11-20T05:11:03;13.43;;;7.47;;
41966;SDS011;27656;53.068;8.818;2022-11-20T05:13:31;14.47;;;7.70;;
41966;SDS011;27656;53.068;8.818;2022-11-20T05:16:11;13.43;;;7.63;;
41966;SDS011;27656;53.068;8.818;2022-11-20T05:18:42;12.43;;;8.03;;
41966;SDS011;27656;53.068;8.818;2022-11-20T05:21:09;14.10;;;7.60;;
41966;SDS011;27656;53.068;8.818;2022-11-20T05:23:37;13.07;;;7.33;;
41966;SDS011;27656;53.068;8.818;2022-11-20T05:26:03;11.87;;;6.90;;
41966;SDS011;27656;53.068;8.818;2022-11-20T05:28:31;11.93;;;7.53;;
41966;SDS011;27656;53.068;8.818;2022-11-20T05:31:09;12.83;;;7.57;;
41966;SDS011;27656;53.068;8.818;2022-11-20T05:33:36;13.03;;;6.97;;
41966;SDS011;27656;53.068;8.818;2022-11-20T05:36:06;14.57;;;7.97;;
41966;SDS011;27656;53.068;8.818;2022-11-20T05:38:33;12.33;;;7.40;;
41966;SDS011;27656;53.068;8.818;2022-11-20T05:41:19;12.97;;;7.37;;
41966;SDS011;27656;53.068;8.818;2022-11-20T05:43:46;14.30;;;7.30;;
41966;SDS011;27656;53.068;8.818;2022-11-20T05:46:14;13.13;;;7.47;;
41966;SDS011;27656;53.068;8.818;2022-11-20T05:48:42;14.17;;;8.60;;
41966;SDS011;27656;53.068;8.818;2022-11-20T05:51:10;13.50;;;7.47;;
41966;SDS011;27656;53.068;8.818;2022-11-20T05:53:38;12.10;;;7.73;;
41966;SDS011;27656;53.068;8.818;2022-11-20T05:56:14;12.83;;;7.47;;
41966;SDS011;27656;53.068;8.818;2022-11-20T05:58:43;14.40;;;7.77;;
41966;SDS011;27656;53.068;8.818;2022-11-20T06:01:14;11.53;;;7.87;;
41966;SDS011;27656;53.068;8.818;2022-11-20T06:03:42;12.20;;;7.57;;
41966;SDS011;27656;53.068;8.818;2022-11-20T06:06:12;15.20;;;8.40;;
41966;SDS011;27656;53.068;8.818;2022-11-20T06:08:38;11.57;;;7.63;;
41966;SDS011;27656;53.068;8.818;2022-11-20T06:11:06;12.83;;;7.57;;
41966;SDS011;27656;53.068;8.818;2022-11-20T06:13:34;13.63;;;7.47;;
41966;SDS011;27656;53.068;8.818;2022-11-20T06:16:07;14.87;;;8.80;;
41966;SDS011;27656;53.068;8.818;2022-11-20T06:18:33;11.00;;;7.27;;
41966;SDS011;27656;53.068;8.818;2022-11-20T06:21:04;12.03;;;7.40;;
41966;SDS011;27656;53.068;8.818;2022-11-20T06:23:33;12.90;;;7.57;;
41966;SDS011;27656;53.068;8.818;2022-11-20T06:26:03;11.97;;;7.90;;
41966;SDS011;27656;53.068;8.818;2022-11-20T06:28:31;11.93;;;7.80;;
41966;SDS011;27656;53.068;8.818;2022-11-20T06:30:58;13.57;;;8.17;;
41966;SDS011;27656;53.068;8.818;2022-11-20T06:33:26;14.63;;;8.10;;
41966;SDS011;27656;53.068;8.818;2022-11-20T06:35:55;13.70;;;8.27;;
41966;SDS011;27656;53.068;8.818;2022-11-20T06:38:28;13.27;;;8.00;;
41966;SDS011;27656;53.068;8.818;2022-11-20T06:40:54;14.37;;;8.30;;
41966;SDS011;27656;53.068;8.818;2022-11-20T06:43:21;15.97;;;9.00;;
41966;SDS011;27656;53.068;8.818;2022-11-20T06:45:52;14.60;;;8.13;;
41966;SDS011;27656;53.068;8.818;2022-11-20T06:48:20;15.27;;;7.70;;
41966;SDS011;27656;53.068;8.818;2022-11-20T06:50:47;13.07;;;7.27;;
41966;SDS011;27656;53.068;8.818;2022-11-20T06:53:13;12.20;;;7.63;;
41966;SDS011;27656;53.068;8.818;2022-11-20T06:55:46;12.17;;;7.93;;
41966;SDS011;27656;53.068;8.818;2022-11-20T06:58:14;12.20;;;7.47;;
41966;SDS011;27656;53.068;8.818;2022-11-20T07:00:41;15.70;;;8.07;;
41966;SDS011;27656;53.068;8.818;2022-11-20T07:03:09;12.87;;;7.70;;
41966;SDS011;27656;53.068;8.818;2022-11-20T07:05:36;14.77;;;8.20;;
41966;SDS011;27656;53.068;8.818;2022-11-20T07:08:04;12.47;;;8.07;;
41966;SDS011;27656;53.068;8.818;2022-11-20T07:10:31;12.33;;;8.03;;
41966;SDS011;27656;53.068;8.818;2022-11-20T07:12:58;12.97;;;8.23;;
41966;SDS011;27656;53.068;8.818;2022-11-20T07:15:25;14.43;;;8.03;;
41966;SDS011;27656;53.068;8.818;2022-11-20T07:17:52;15.83;;;8.97;;
41966;SDS011;27656;53.068;8.818;2022-11-20T07:20:19;18.50;;;9.23;;
41966;SDS011;27656;53.068;8.818;2022-11-20T07:22:45;17.57;;;9.80;;
41966;SDS011;27656;53.068;8.818;2022-11-20T07:25:12;18.90;;;10.30;;
41966;SDS011;27656;53.068;8.818;2022-11-20T07:27:39;17.90;;;9.73;;
41966;SDS011;27656;53.068;8.818;2022-11-20T07:30:05;15.57;;;9.20;;
41966;SDS011;27656;53.068;8.818;2022-11-20T07:32:33;14.90;;;8.83;;
41966;SDS011;27656;53.068;8.818;2022-11-20T07:35:00;17.77;;;9.83;;
41966;SDS011;27656;53.068;8.818;2022-11-20T07:37:26;18.90;;;10.07;;
41966;SDS011;27656;53.068;8.818;2022-11-20T07:39:53;16.27;;;9.30;;
41966;SDS011;27656;53.068;8.818;2022-11-20T07:42:19;19.07;;;9.37;;
41966;SDS011;27656;53.068;8.818;2022-11-20T07:44:46;18.93;;;9.60;;
41966;SDS011;27656;53.068;8.818;2022-11-20T07:47:12;19.67;;;10.17;;
41966;SDS011;27656;53.068;8.818;2022-11-20T07:49:39;15.67;;;9.40;;
41966;SDS011;27656;53.068;8.818;2022-11-20T07:52:06;17.73;;;9.40;;
41966;SDS011;27656;53.068;8.818;2022-11-20T07:54:33;16.73;;;9.23;;
41966;SDS011;27656;53.068;8.818;2022-11-20T07:57:00;16.47;;;9.40;;
41966;SDS011;27656;53.068;8.818;2022-11-20T07:59:27;16.33;;;9.40;;
41966;SDS011;27656;53.068;8.818;2022-11-20T08:01:53;16.90;;;9.80;;
41966;SDS011;27656;53.068;8.818;2022-11-20T08:04:21;15.90;;;9.37;;
41966;SDS011;27656;53.068;8.818;2022-11-20T08:06:47;16.47;;;9.40;;
41966;SDS011;27656;53.068;8.818;2022-11-20T08:09:14;16.50;;;9.67;;
41966;SDS011;27656;53.068;8.818;2022-11-20T08:11:40;17.87;;;10.33;;
41966;SDS011;27656;53.068;8.818;2022-11-20T08:14:26;16.67;;;9.93;;
41966;SDS011;27656;53.068;8.818;2022-11-20T08:16:56;14.97;;;9.07;;
41966;SDS011;27656;53.068;8.818;2022-11-20T08:19:23;16.53;;;10.07;;
41966;SDS011;27656;53.068;8.818;2022-11-20T08:21:50;17.60;;;10.30;;
41966;SDS011;27656;53.068;8.818;2022-11-20T08:24:17;16.87;;;10.27;;
41966;SDS011;27656;53.068;8.818;2022-11-20T08:26:43;15.37;;;8.70;;
41966;SDS011;27656;53.068;8.818;2022-11-20T08:29:10;16.93;;;9.60;;
41966;SDS011;27656;53.068;8.818;2022-11-20T08:31:36;15.07;;;9.57;;
41966;SDS011;27656;53.068;8.818;2022-11-20T08:34:03;15.27;;;9.77;;
41966;SDS011;27656;53.068;8.818;2022-11-20T08:36:35;19.03;;;9.27;;
41966;SDS011;27656;53.068;8.818;2022-11-20T08:39:03;18.10;;;9.90;;
41966;SDS011;27656;53.068;8.818;2022-11-20T08:41:30;20.67;;;10.40;;
41966;SDS011;27656;53.068;8.818;2022-11-20T08:44:00;18.53;;;10.50;;
41966;SDS011;27656;53.068;8.818;2022-11-20T08:46:30;15.40;;;9.23;;
41966;SDS011;27656;53.068;8.818;2022-11-20T08:48:59;16.50;;;10.70;;
41966;SDS011;27656;53.068;8.818;2022-11-20T08:51:26;16.47;;;9.83;;
41966;SDS011;27656;53.068;8.818;2022-11-20T08:53:52;19.03;;;10.17;;
41966;SDS011;27656;53.068;8.818;2022-11-20T08:56:19;15.73;;;10.03;;
41966;SDS011;27656;53.068;8.818;2022-11-20T08:58:45;17.73;;;9.83;;
41966;SDS011;27656;53.068;8.818;2022-11-20T09:01:31;16.80;;;10.23;;
41966;SDS011;27656;53.068;8.818;2022-11-20T09:03:58;15.73;;;10.17;;
41966;SDS011;27656;53.068;8.818;2022-11-20T09:06:25;20.87;;;10.23;;
41966;SDS011;27656;53.068;8.818;2022-11-20T09:08:52;14.93;;;8.77;;
41966;SDS011;27656;53.068;8.818;2022-11-20T09:11:20;17.33;;;9.57;;
41966;SDS011;27656;53.068;8.818;2022-11-20T09:13:46;16.53;;;9.77;;
41966;SDS011;27656;53.068;8.818;2022-11-20T09:16:13;15.33;;;9.47;;
41966;SDS011;27656;53.068;8.818;2022-11-20T09:18:40;14.80;;;9.17;;
41966;SDS011;27656;53.068;8.818;2022-11-20T09:21:09;14.27;;;9.10;;
41966;SDS011;27656;53.068;8.818;2022-11-20T09:23:37;16.60;;;8.63;;
41966;SDS011;27656;53.068;8.818;2022-11-20T09:28:31;15.63;;;9.07;;
41966;SDS011;27656;53.068;8.818;2022-11-20T09:30:58;17.90;;;8.87;;
41966;SDS011;27656;53.068;8.818;2022-11-20T09:33:25;14.33;;;9.17;;
41966;SDS011;27656;53.068;8.818;2022-11-20T09:35:52;15.77;;;9.13;;
41966;SDS011;27656;53.068;8.818;2022-11-20T09:38:18;15.70;;;9.40;;
41966;SDS011;27656;53.068;8.818;2022-11-20T09:40:47;18.20;;;9.17;;
41966;SDS011;27656;53.068;8.818;2022-11-20T09:46:11;18.43;;;9.47;;
41966;SDS011;27656;53.068;8.818;2022-11-20T09:48:46;14.33;;;9.47;;
41966;SDS011;27656;53.068;8.818;2022-11-20T09:51:27;16.23;;;9.03;;
41966;SDS011;27656;53.068;8.818;2022-11-20T09:54:16;14.90;;;8.83;;
41966;SDS011;27656;53.068;8.818;2022-11-20T09:56:53;17.33;;;9.63;;
41966;SDS011;27656;53.068;8.818;2022-11-20T09:59:36;15.47;;;9.77;;
41966;SDS011;27656;53.068;8.818;2022-11-20T10:02:11;17.07;;;9.97;;
41966;SDS011;27656;53.068;8.818;2022-11-20T10:04:44;15.77;;;9.80;;
41966;SDS011;27656;53.068;8.818;2022-11-20T10:09:57;15.10;;;9.03;;
41966;SDS011;27656;53.068;8.818;2022-11-20T10:20:16;19.27;;;10.33;;
41966;SDS011;27656;53.068;8.818;2022-11-20T10:22:54;16.93;;;10.00;;
41966;SDS011;27656;53.068;8.818;2022-11-20T10:26:16;20.40;;;10.37;;
41966;SDS011;27656;53.068;8.818;2022-11-20T10:28:58;15.83;;;9.80;;
41966;SDS011;27656;53.068;8.818;2022-11-20T10:31:40;18.57;;;11.03;;
41966;SDS011;27656;53.068;8.818;2022-11-20T10:34:20;20.53;;;10.70;;
41966;SDS011;27656;53.068;8.818;2022-11-20T10:36:52;16.93;;;10.30;;
41966;SDS011;27656;53.068;8.818;2022-11-20T10:42:15;19.23;;;9.90;;
41966;SDS011;27656;53.068;8.818;2022-11-20T10:44:52;18.60;;;10.87;;
41966;SDS011;27656;53.068;8.818;2022-11-20T10:47:31;18.23;;;10.37;;
41966;SDS011;27656;53.068;8.818;2022-11-20T10:50:04;16.17;;;10.50;;
41966;SDS011;27656;53.068;8.818;2022-11-20T10:52:54;18.90;;;10.93;;
41966;SDS011;27656;53.068;8.818;2022-11-20T10:58:13;19.03;;;9.83;;
41966;SDS011;27656;53.068;8.818;2022-11-20T11:00:40;18.00;;;10.80;;
41966;SDS011;27656;53.068;8.818;2022-11-20T11:03:14;17.23;;;10.30;;
41966;SDS011;27656;53.068;8.818;2022-11-20T11:05:50;17.90;;;11.03;;
41966;SDS011;27656;53.068;8.818;2022-11-20T11:08:20;16.83;;;10.17;;
41966;SDS011;27656;53.068;8.818;2022-11-20T11:10:59;18.37;;;10.67;;
41966;SDS011;27656;53.068;8.818;2022-11-20T11:13:28;19.73;;;10.53;;
41966;SDS011;27656;53.068;8.818;2022-11-20T11:15:56;15.97;;;9.87;;
41966;SDS011;27656;53.068;8.818;2022-11-20T11:18:26;18.53;;;9.97;;
41966;SDS011;27656;53.068;8.818;2022-11-20T11:20:56;18.20;;;9.80;;
41966;SDS011;27656;53.068;8.818;2022-11-20T11:23:39;18.80;;;10.63;;
41966;SDS011;27656;53.068;8.818;2022-11-20T11:28:57;16.67;;;9.80;;
41966;SDS011;27656;53.068;8.818;2022-11-20T11:34:05;17.53;;;10.47;;
41966;SDS011;27656;53.068;8.818;2022-11-20T11:36:35;14.90;;;9.60;;
41966;SDS011;27656;53.068;8.818;2022-11-20T11:39:03;16.13;;;9.67;;
41966;SDS011;27656;53.068;8.818;2022-11-20T11:41:31;17.53;;;9.87;;
41966;SDS011;27656;53.068;8.818;2022-11-20T11:44:04;16.03;;;10.10;;
41966;SDS011;27656;53.068;8.818;2022-11-20T11:47:00;16.93;;;10.30;;
41966;SDS011;27656;53.068;8.818;2022-11-20T11:49:26;15.07;;;9.83;;
41966;SDS011;27656;53.068;8.818;2022-11-20T11:52:13;14.80;;;9.67;;
41966;SDS011;27656;53.068;8.818;2022-11-20T11:59:59;13.57;;;8.73;;
41966;SDS011;27656;53.068;8.818;2022-11-20T12:05:08;14.13;;;8.47;;
41966;SDS011;27656;53.068;8.818;2022-11-20T12:07:38;12.10;;;7.77;;
41966;SDS011;27656;53.068;8.818;2022-11-20T12:10:14;12.37;;;7.97;;
41966;SDS011;27656;53.068;8.818;2022-11-20T12:12:44;15.53;;;8.23;;
41966;SDS011;27656;53.068;8.818;2022-11-20T12:15:15;12.07;;;7.50;;
41966;SDS011;27656;53.068;8.818;2022-11-20T12:17:47;14.87;;;8.67;;
41966;SDS011;27656;53.068;8.818;2022-11-20T12:20:14;11.43;;;7.27;;
41966;SDS011;27656;53.068;8.818;2022-11-20T12:25:19;11.43;;;7.77;;
41966;SDS011;27656;53.068;8.818;2022-11-20T12:28:00;14.20;;;8.33;;
41966;SDS011;27656;53.068;8.818;2022-11-20T12:30:39;11.87;;;7.70;;
41966;SDS011;27656;53.068;8.818;2022-11-20T12:47:45;13.07;;;6.43;;
41966;SDS011;27656;53.068;8.818;2022-11-20T12:50:30;10.03;;;6.43;;
41966;SDS011;27656;53.068;8.818;2022-11-20T12:59:08;10.63;;;6.80;;
41966;SDS011;27656;53.068;8.818;2022-11-20T13:01:44;10.97;;;7.00;;
41966;SDS011;27656;53.068;8.818;2022-11-20T13:07:20;11.83;;;7.03;;
41966;SDS011;27656;53.068;8.818;2022-11-20T13:09:48;11.63;;;7.50;;
41966;SDS011;27656;53.068;8.818;2022-11-20T13:15:11;13.00;;;7.70;;
41966;SDS011;27656;53.068;8.818;2022-11-20T13:17:59;12.90;;;7.87;;
41966;SDS011;27656;53.068;8.818;2022-11-20T13:20:27;14.90;;;7.80;;
41966;SDS011;27656;53.068;8.818;2022-11-20T13:22:55;12.07;;;8.30;;
41966;SDS011;27656;53.068;8.818;2022-11-20T13:25:36;10.70;;;6.97;;
41966;SDS011;27656;53.068;8.818;2022-11-20T13:28:05;12.70;;;8.37;;
41966;SDS011;27656;53.068;8.818;2022-11-20T13:30:54;12.60;;;8.03;;
41966;SDS011;27656;53.068;8.818;2022-11-20T13:33:26;11.30;;;7.83;;
41966;SDS011;27656;53.068;8.818;2022-11-20T13:36:02;11.13;;;7.47;;
41966;SDS011;27656;53.068;8.818;2022-11-20T13:38:41;11.87;;;7.77;;
41966;SDS011;27656;53.068;8.818;2022-11-20T13:41:10;12.97;;;8.33;;
41966;SDS011;27656;53.068;8.818;2022-11-20T13:43:58;10.83;;;7.50;;
41966;SDS011;27656;53.068;8.818;2022-11-20T13:46:38;14.70;;;8.53;;
41966;SDS011;27656;53.068;8.818;2022-11-20T13:49:10;11.97;;;7.50;;
41966;SDS011;27656;53.068;8.818;2022-11-20T13:51:47;14.40;;;9.03;;
41966;SDS011;27656;53.068;8.818;2022-11-20T14:02:41;11.07;;;7.90;;
41966;SDS011;27656;53.068;8.818;2022-11-20T14:05:14;15.23;;;8.53;;
41966;SDS011;27656;53.068;8.818;2022-11-20T14:07:45;15.27;;;9.47;;
41966;SDS011;27656;53.068;8.818;2022-11-20T14:10:47;13.33;;;8.90;;
41966;SDS011;27656;53.068;8.818;2022-11-20T14:13:10;12.97;;;8.57;;
41966;SDS011;27656;53.068;8.818;2022-11-20T14:15:45;15.17;;;9.17;;
41966;SDS011;27656;53.068;8.818;2022-11-20T14:18:13;12.90;;;8.17;;
41966;SDS011;27656;53.068;8.818;2022-11-20T14:20:44;14.97;;;8.63;;
41966;SDS011;27656;53.068;8.818;2022-11-20T14:23:11;12.80;;;8.77;;
41966;SDS011;27656;53.068;8.818;2022-11-20T14:25:42;15.80;;;9.40;;
41966;SDS011;27656;53.068;8.818;2022-11-20T14:28:18;17.30;;;10.30;;
41966;SDS011;27656;53.068;8.818;2022-11-20T14:30:56;13.53;;;8.57;;
41966;SDS011;27656;53.068;8.818;2022-11-20T14:33:23;14.17;;;9.43;;
41966;SDS011;27656;53.068;8.818;2022-11-20T14:35:55;16.30;;;9.90;;
41966;SDS011;27656;53.068;8.818;2022-11-20T14:38:28;17.07;;;9.50;;
41966;SDS011;27656;53.068;8.818;2022-11-20T14:41:49;16.90;;;9.87;;
41966;SDS011;27656;53.068;8.818;2022-11-20T14:43:58;15.00;;;10.07;;
41966;SDS011;27656;53.068;8.818;2022-11-20T14:46:25;15.70;;;9.57;;
41966;SDS011;27656;53.068;8.818;2022-11-20T14:48:55;15.93;;;10.33;;
41966;SDS011;27656;53.068;8.818;2022-11-20T14:51:28;15.43;;;9.70;;
41966;SDS011;27656;53.068;8.818;2022-11-20T14:54:07;15.83;;;10.10;;
41966;SDS011;27656;53.068;8.818;2022-11-20T14:56:38;15.00;;;9.40;;
41966;SDS011;27656;53.068;8.818;2022-11-20T14:59:04;17.00;;;10.27;;
41966;SDS011;27656;53.068;8.818;2022-11-20T15:01:31;17.13;;;10.27;;
41966;SDS011;27656;53.068;8.818;2022-11-20T15:03:59;17.70;;;10.90;;
41966;SDS011;27656;53.068;8.818;2022-11-20T15:06:37;17.80;;;10.43;;
41966;SDS011;27656;53.068;8.818;2022-11-20T15:09:18;17.77;;;11.17;;
41966;SDS011;27656;53.068;8.818;2022-11-20T15:12:18;16.90;;;10.70;;
41966;SDS011;27656;53.068;8.818;2022-11-20T15:14:42;22.97;;;11.57;;
41966;SDS011;27656;53.068;8.818;2022-11-20T15:17:09;19.10;;;11.30;;
41966;SDS011;27656;53.068;8.818;2022-11-20T15:19:37;16.63;;;10.77;;
41966;SDS011;27656;53.068;8.818;2022-11-20T15:22:04;18.63;;;11.10;;
41966;SDS011;27656;53.068;8.818;2022-11-20T15:24:30;19.80;;;12.07;;
41966;SDS011;27656;53.068;8.818;2022-11-20T15:26:57;17.67;;;10.47;;
41966;SDS011;27656;53.068;8.818;2022-11-20T15:29:23;18.43;;;11.17;;
41966;SDS011;27656;53.068;8.818;2022-11-20T15:31:50;17.93;;;11.87;;
41966;SDS011;27656;53.068;8.818;2022-11-20T15:34:18;25.30;;;13.00;;
41966;SDS011;27656;53.068;8.818;2022-11-20T15:36:45;20.43;;;12.17;;
41966;SDS011;27656;53.068;8.818;2022-11-20T15:39:11;21.53;;;12.83;;
41966;SDS011;27656;53.068;8.818;2022-11-20T15:41:38;22.03;;;12.80;;
41966;SDS011;27656;53.068;8.818;2022-11-20T15:44:05;22.43;;;12.80;;
41966;SDS011;27656;53.068;8.818;2022-11-20T15:46:32;20.30;;;13.03;;
41966;SDS011;27656;53.068;8.818;2022-11-20T15:49:06;24.47;;;13.97;;
41966;SDS011;27656;53.068;8.818;2022-11-20T15:51:38;22.53;;;13.33;;
41966;SDS011;27656;53.068;8.818;2022-11-20T15:54:13;23.63;;;13.57;;
41966;SDS011;27656;53.068;8.818;2022-11-20T15:56:43;27.47;;;13.83;;
41966;SDS011;27656;53.068;8.818;2022-11-20T15:59:09;21.77;;;12.87;;
41966;SDS011;27656;53.068;8.818;2022-11-20T16:01:36;25.60;;;13.83;;
41966;SDS011;27656;53.068;8.818;2022-11-20T16:04:04;24.20;;;13.10;;